Time;durP1;ratioP1;P1;durP2;ratioP2;P2;SDS_P1;SDS_P2;PMS_P1;PMS_P2;Temp;Humidity;BMP_temperature;BMP_pressure;BME280_temperature;BME280_humidity;BME280_pressure;Samples;Min_cycle;Max_cycle;Signal;HPM_P1;HPM_P2
2022/11/17 00:01:47;;;;;;;;;;;;;;;10.53;nan;100872.78;5002004;28;20028;-32
2022/11/17 00:04:13;;;;;;;;;;;;;;;10.52;nan;100871.16;5001866;28;19933;-33
2022/11/17 00:06:38;;;;;;;;;;;;;;;10.55;nan;100860.75;5002433;28;20339;-32
2022/11/17 00:09:04;;;;;;;;;;;;;;;10.54;nan;100863.69;5002236;28;19917;-33
2022/11/17 00:14:31;;;;;;;;;;;;;;;10.53;nan;100857.50;5003576;28;19969;-32
2022/11/17 00:14:33;;;;;;;;;;;;;;;10.63;nan;100853.38;4999057;28;19922;-32
2022/11/17 00:16:58;;;;;;;;;;;;;;;10.67;nan;100852.63;5003416;28;20012;-32
2022/11/17 00:22:08;;;;;;;;;;;;;;;10.56;nan;100854.34;5003604;28;19924;-32
2022/11/17 00:24:33;;;;;;;;;;;;;;;10.62;nan;100851.75;5003451;28;19921;-32
2022/11/17 00:27:01;;;;;;;;;;;;;;;10.56;nan;100851.66;5005072;28;19917;-33
2022/11/17 00:29:27;;;;;;;;;;;;;;;10.62;nan;100857.13;5004285;28;19932;-32
2022/11/17 00:34:37;;;;;;;;;;;;;;;10.44;nan;100856.31;5003410;28;20279;-32
2022/11/17 00:37:02;;;;;;;;;;;;;;;10.44;nan;100853.63;5005269;28;19921;-33
2022/11/17 00:39:28;;;;;;;;;;;;;;;10.33;nan;100851.03;5002182;28;20069;-32
2022/11/17 00:41:54;;;;;;;;;;;;;;;10.27;nan;100848.28;5004782;28;19956;-33
2022/11/17 00:44:20;;;;;;;;;;;;;;;10.36;nan;100845.19;4999718;28;19955;-33
2022/11/17 00:46:45;;;;;;;;;;;;;;;10.27;nan;100837.56;5002652;28;19921;-33
2022/11/17 00:49:11;;;;;;;;;;;;;;;10.29;nan;100840.81;5002389;28;20291;-32
2022/11/17 00:51:37;;;;;;;;;;;;;;;10.25;nan;100834.31;5002214;28;19937;-33
2022/11/17 00:54:03;;;;;;;;;;;;;;;10.21;nan;100822.44;5002795;28;19932;-32
2022/11/17 00:56:28;;;;;;;;;;;;;;;10.25;nan;100828.97;5003391;28;20175;-32
2022/11/17 00:58:53;;;;;;;;;;;;;;;10.20;nan;100841.41;5007104;28;20095;-32
2022/11/17 01:01:19;;;;;;;;;;;;;;;10.12;nan;100828.44;5006304;28;20136;-32
2022/11/17 01:03:44;;;;;;;;;;;;;;;10.11;nan;100829.50;5004313;28;19921;-32
2022/11/17 01:06:14;;;;;;;;;;;;;;;10.06;nan;100830.22;5006323;28;19941;-32
2022/11/17 01:08:40;;;;;;;;;;;;;;;10.06;nan;100835.59;5006583;28;19944;-32
2022/11/17 01:11:05;;;;;;;;;;;;;;;10.04;nan;100829.63;5003836;28;20380;-33
2022/11/17 01:13:31;;;;;;;;;;;;;;;10.05;nan;100835.81;5021021;22;19929;-32
2022/11/17 01:16:00;;;;;;;;;;;;;;;10.10;nan;100831.38;5013606;28;20395;-31
2022/11/17 01:18:26;;;;;;;;;;;;;;;10.16;nan;100829.56;5017398;28;20464;-32
2022/11/17 01:20:51;;;;;;;;;;;;;;;10.21;nan;100827.81;5017135;28;19929;-32
2022/11/17 01:23:17;;;;;;;;;;;;;;;10.17;nan;100823.16;5018206;28;19917;-32
2022/11/17 01:25:42;;;;;;;;;;;;;;;10.21;nan;100821.66;5018219;28;19975;-32
2022/11/17 01:28:08;;;;;;;;;;;;;;;10.22;nan;100817.91;5015906;28;19925;-32
2022/11/17 01:30:33;;;;;;;;;;;;;;;10.13;nan;100820.16;5021444;28;19920;-32
2022/11/17 01:32:58;;;;;;;;;;;;;;;10.16;nan;100821.53;5013937;28;20027;-32
2022/11/17 01:35:24;;;;;;;;;;;;;;;10.10;nan;100814.50;5015046;28;19921;-32
2022/11/17 01:37:49;;;;;;;;;;;;;;;9.93;nan;100804.59;5014488;28;19921;-32
2022/11/17 01:40:14;;;;;;;;;;;;;;;9.90;nan;100802.41;5021954;28;19925;-32
2022/11/17 01:42:40;;;;;;;;;;;;;;;9.84;nan;100797.19;5015002;28;19917;-32
2022/11/17 01:45:17;;;;;;;;;;;;;;;9.84;nan;100806.00;5014058;28;19947;-32
2022/11/17 01:47:45;;;;;;;;;;;;;;;9.81;nan;100801.16;5015684;28;20024;-32
2022/11/17 01:50:24;;;;;;;;;;;;;;;9.81;nan;100805.69;5013979;28;19971;-32
2022/11/17 01:52:50;;;;;;;;;;;;;;;9.82;nan;100805.44;5016663;28;19929;-32
2022/11/17 01:55:17;;;;;;;;;;;;;;;9.89;nan;100792.75;5010463;28;19917;-32
2022/11/17 01:57:45;;;;;;;;;;;;;;;9.97;nan;100802.22;5018178;28;20235;-32
2022/11/17 02:00:11;;;;;;;;;;;;;;;9.96;nan;100798.75;5019372;28;19917;-32
2022/11/17 02:02:38;;;;;;;;;;;;;;;10.02;nan;100786.25;5019355;28;19917;-32
2022/11/17 02:05:03;;;;;;;;;;;;;;;10.07;nan;100793.56;5014148;28;20433;-32
2022/11/17 02:07:30;;;;;;;;;;;;;;;10.15;nan;100787.78;5020642;28;19917;-32
2022/11/17 02:09:55;;;;;;;;;;;;;;;10.16;nan;100802.81;5015827;28;20457;-32
2022/11/17 02:12:24;;;;;;;;;;;;;;;10.13;nan;100800.63;5013719;28;19921;-32
2022/11/17 02:14:49;;;;;;;;;;;;;;;10.15;nan;100793.16;5012561;28;19925;-32
2022/11/17 02:17:15;;;;;;;;;;;;;;;10.08;nan;100795.19;5020782;28;19979;-32
2022/11/17 02:19:42;;;;;;;;;;;;;;;10.05;nan;100790.28;5015682;28;20405;-32
2022/11/17 02:22:26;;;;;;;;;;;;;;;9.99;nan;100792.91;5019822;28;19918;-32
2022/11/17 02:25:04;;;;;;;;;;;;;;;9.97;nan;100789.66;5014924;28;19917;-32
2022/11/17 02:27:48;;;;;;;;;;;;;;;9.96;nan;100785.34;5018826;28;19944;-32
2022/11/17 02:30:15;;;;;;;;;;;;;;;9.96;nan;100788.03;5013877;28;19921;-32
2022/11/17 02:33:00;;;;;;;;;;;;;;;9.98;nan;100783.25;5018725;28;19921;-32
2022/11/17 02:35:28;;;;;;;;;;;;;;;10.00;nan;100773.09;5016594;28;19917;-32
2022/11/17 02:38:12;;;;;;;;;;;;;;;10.02;nan;100769.38;5017700;28;20528;-32
2022/11/17 02:40:44;;;;;;;;;;;;;;;9.93;nan;100760.94;5016343;28;20183;-32
2022/11/17 02:46:03;;;;;;;;;;;;;;;10.04;nan;100769.94;5017613;28;19936;-32
2022/11/17 02:48:31;;;;;;;;;;;;;;;10.09;nan;100770.03;5016617;28;19925;-32
2022/11/17 02:50:58;;;;;;;;;;;;;;;10.06;nan;100767.84;5020146;28;20437;-32
2022/11/17 02:53:24;;;;;;;;;;;;;;;9.99;nan;100759.97;5015098;28;19971;-32
2022/11/17 02:55:51;;;;;;;;;;;;;;;9.94;nan;100758.03;5019172;28;19963;-32
2022/11/17 02:58:16;;;;;;;;;;;;;;;9.93;nan;100748.38;5017617;28;19922;-32
2022/11/17 03:00:53;;;;;;;;;;;;;;;9.97;nan;100757.53;5014242;28;19917;-32
2022/11/17 03:03:24;;;;;;;;;;;;;;;9.95;nan;100745.47;5017629;28;19927;-32
2022/11/17 03:05:53;;;;;;;;;;;;;;;9.96;nan;100761.25;5016851;28;19953;-32
2022/11/17 03:08:30;;;;;;;;;;;;;;;9.98;nan;100751.13;5016651;28;20337;-32
2022/11/17 03:10:58;;;;;;;;;;;;;;;9.99;nan;100759.97;5018039;28;19924;-32
2022/11/17 03:13:35;;;;;;;;;;;;;;;9.87;nan;100768.06;5015655;28;20384;-32
2022/11/17 03:16:08;;;;;;;;;;;;;;;9.92;nan;100765.50;5015392;28;20000;-32
2022/11/17 03:18:36;;;;;;;;;;;;;;;10.00;nan;100762.41;5009932;28;19914;-32
2022/11/17 03:21:09;;;;;;;;;;;;;;;10.05;nan;100763.53;5017336;28;19925;-32
2022/11/17 03:23:45;;;;;;;;;;;;;;;10.09;nan;100754.78;5015308;28;20547;-32
2022/11/17 03:26:12;;;;;;;;;;;;;;;10.08;nan;100755.03;5016989;28;20405;-32
2022/11/17 03:28:38;;;;;;;;;;;;;;;10.08;nan;100749.69;5014869;28;20112;-32
2022/11/17 03:31:05;;;;;;;;;;;;;;;10.12;nan;100751.63;5019698;28;19933;-32
2022/11/17 03:33:32;;;;;;;;;;;;;;;10.20;nan;100747.69;5015871;28;19953;-32
2022/11/17 03:36:02;;;;;;;;;;;;;;;10.21;nan;100746.66;5016739;28;20443;-32
2022/11/17 03:38:30;;;;;;;;;;;;;;;10.23;nan;100748.06;5018837;28;19936;-32
2022/11/17 03:40:58;;;;;;;;;;;;;;;10.21;nan;100738.63;5018219;28;19918;-32
2022/11/17 03:43:24;;;;;;;;;;;;;;;10.23;nan;100740.03;5017683;28;20624;-32
2022/11/17 03:45:52;;;;;;;;;;;;;;;10.22;nan;100733.03;5016877;28;20409;-32
2022/11/17 03:48:27;;;;;;;;;;;;;;;10.24;nan;100725.59;5014976;28;19921;-32
2022/11/17 03:50:57;;;;;;;;;;;;;;;10.21;nan;100725.25;5014463;28;20055;-32
2022/11/17 03:53:23;;;;;;;;;;;;;;;10.22;nan;100716.16;5019507;28;19921;-32
2022/11/17 03:55:48;;;;;;;;;;;;;;;10.20;nan;100724.41;5012649;28;20238;-32
2022/11/17 03:58:16;;;;;;;;;;;;;;;10.15;nan;100726.22;5016433;28;19917;-32
2022/11/17 04:00:42;;;;;;;;;;;;;;;10.16;nan;100725.16;5016538;28;19936;-32
2022/11/17 04:03:07;;;;;;;;;;;;;;;10.22;nan;100718.84;5019491;28;19925;-32
2022/11/17 04:05:33;;;;;;;;;;;;;;;10.19;nan;100713.94;5015075;28;19925;-32
2022/11/17 04:07:58;;;;;;;;;;;;;;;10.09;nan;100729.88;5013944;28;19992;-32
2022/11/17 04:10:26;;;;;;;;;;;;;;;10.08;nan;100728.25;5017550;28;19968;-32
2022/11/17 04:18:20;;;;;;;;;;;;;;;10.11;nan;100725.09;5013425;28;20409;-32
2022/11/17 04:20:53;;;;;;;;;;;;;;;10.13;nan;100717.63;5015024;28;19917;-32
2022/11/17 04:23:18;;;;;;;;;;;;;;;10.17;nan;100710.72;5015270;28;20268;-32
2022/11/17 04:28:36;;;;;;;;;;;;;;;10.17;nan;100716.06;5013987;28;19928;-32
2022/11/17 04:31:08;;;;;;;;;;;;;;;10.16;nan;100717.94;5016324;28;20554;-32
2022/11/17 04:33:34;;;;;;;;;;;;;;;10.06;nan;100711.63;5021441;28;20481;-32
2022/11/17 04:36:00;;;;;;;;;;;;;;;10.09;nan;100716.50;5021785;28;20625;-32
2022/11/17 04:38:25;;;;;;;;;;;;;;;9.97;nan;100712.03;5019795;28;20007;-32
2022/11/17 04:43:36;;;;;;;;;;;;;;;10.02;nan;100718.50;5014852;28;20035;-32
2022/11/17 04:46:01;;;;;;;;;;;;;;;10.06;nan;100712.44;5018334;28;19932;-32
2022/11/17 04:48:27;;;;;;;;;;;;;;;9.96;nan;100726.47;5018185;28;19926;-32
2022/11/17 04:50:53;;;;;;;;;;;;;;;9.94;nan;100714.41;5018775;28;20361;-32
2022/11/17 04:53:18;;;;;;;;;;;;;;;9.96;nan;100715.75;5022514;28;19917;-32
2022/11/17 04:55:43;;;;;;;;;;;;;;;9.94;nan;100715.19;5022839;28;20397;-32
2022/11/17 04:58:09;;;;;;;;;;;;;;;10.01;nan;100715.03;5020255;28;19925;-32
2022/11/17 05:00:34;;;;;;;;;;;;;;;10.05;nan;100720.69;5020138;28;19928;-32
2022/11/17 05:02:59;;;;;;;;;;;;;;;10.09;nan;100717.31;5015196;28;19955;-32
2022/11/17 05:05:25;;;;;;;;;;;;;;;10.12;nan;100719.50;5016432;28;19964;-32
2022/11/17 05:07:50;;;;;;;;;;;;;;;10.11;nan;100712.50;5017587;28;20004;-32
2022/11/17 05:10:15;;;;;;;;;;;;;;;10.17;nan;100714.19;5020880;28;20638;-32
2022/11/17 05:18:10;;;;;;;;;;;;;;;10.20;nan;100704.84;5007439;28;20000;-32
2022/11/17 05:20:35;;;;;;;;;;;;;;;10.24;nan;100693.47;5018619;28;20009;-32
2022/11/17 05:25:45;;;;;;;;;;;;;;;10.28;nan;100713.31;5017868;28;19924;-32
2022/11/17 05:28:10;;;;;;;;;;;;;;;10.23;nan;100705.22;5013776;28;20304;-32
2022/11/17 05:30:35;;;;;;;;;;;;;;;10.23;nan;100705.22;5020118;28;20180;-32
2022/11/17 05:33:01;;;;;;;;;;;;;;;10.26;nan;100698.56;5019092;28;19931;-32
2022/11/17 05:35:26;;;;;;;;;;;;;;;10.34;nan;100708.03;5015273;28;19929;-32
2022/11/17 05:37:51;;;;;;;;;;;;;;;10.32;nan;100713.63;5018236;28;19963;-32
2022/11/17 05:40:17;;;;;;;;;;;;;;;10.35;nan;100707.78;5018881;28;20004;-32
2022/11/17 05:42:42;;;;;;;;;;;;;;;10.40;nan;100707.84;5016758;28;20015;-32
2022/11/17 05:45:08;;;;;;;;;;;;;;;10.36;nan;100704.03;5012524;28;20564;-32
2022/11/17 05:47:33;;;;;;;;;;;;;;;10.39;nan;100698.19;5015789;28;20007;-32
2022/11/17 05:49:58;;;;;;;;;;;;;;;10.37;nan;100703.00;5015095;28;19924;-32
2022/11/17 05:52:23;;;;;;;;;;;;;;;10.22;nan;100694.75;5015115;28;20303;-32
2022/11/17 05:54:49;;;;;;;;;;;;;;;10.23;nan;100697.19;5016812;28;20142;-32
2022/11/17 05:57:18;;;;;;;;;;;;;;;10.21;nan;100693.94;5019078;28;20367;-32
2022/11/17 05:59:52;;;;;;;;;;;;;;;10.18;nan;100689.03;5016762;28;19948;-32
2022/11/17 06:02:19;;;;;;;;;;;;;;;10.16;nan;100685.00;5016621;28;19917;-32
2022/11/17 06:04:47;;;;;;;;;;;;;;;10.18;nan;100690.91;5018211;28;20438;-32
2022/11/17 06:07:12;;;;;;;;;;;;;;;10.23;nan;100696.34;5020823;28;20078;-32
2022/11/17 06:09:39;;;;;;;;;;;;;;;10.27;nan;100705.53;5019249;28;20276;-32
2022/11/17 06:12:04;;;;;;;;;;;;;;;10.17;nan;100708.84;5009816;28;19929;-32
2022/11/17 06:14:30;;;;;;;;;;;;;;;10.25;nan;100702.31;5016019;28;19928;-32
2022/11/17 06:16:58;;;;;;;;;;;;;;;10.24;nan;100701.50;5016439;28;20576;-32
2022/11/17 06:19:27;;;;;;;;;;;;;;;10.25;nan;100708.47;5019356;28;19917;-32
2022/11/17 06:21:53;;;;;;;;;;;;;;;10.25;nan;100711.16;5014214;28;20391;-33
2022/11/17 06:24:18;;;;;;;;;;;;;;;10.28;nan;100709.84;5009328;28;20019;-33
2022/11/17 06:26:44;;;;;;;;;;;;;;;10.31;nan;100714.69;5010594;28;19925;-33
2022/11/17 06:29:11;;;;;;;;;;;;;;;10.24;nan;100709.53;5016853;28;19921;-34
2022/11/17 06:31:37;;;;;;;;;;;;;;;10.22;nan;100706.25;5015188;28;19936;-34
2022/11/17 06:34:03;;;;;;;;;;;;;;;10.15;nan;100705.59;5014764;28;20386;-33
2022/11/17 06:36:29;;;;;;;;;;;;;;;10.24;nan;100704.16;5014307;28;20303;-34
2022/11/17 06:38:54;;;;;;;;;;;;;;;10.26;nan;100703.91;5013178;28;19921;-33
2022/11/17 06:41:19;;;;;;;;;;;;;;;10.18;nan;100702.44;5016882;28;20008;-33
2022/11/17 06:43:45;;;;;;;;;;;;;;;10.12;nan;100699.94;5010863;28;19970;-34
2022/11/17 06:46:10;;;;;;;;;;;;;;;10.10;nan;100702.06;5014373;28;20542;-33
2022/11/17 06:48:35;;;;;;;;;;;;;;;10.12;nan;100703.41;5015147;28;19924;-34
2022/11/17 06:51:03;;;;;;;;;;;;;;;10.18;nan;100697.06;5013187;28;19936;-33
2022/11/17 06:53:28;;;;;;;;;;;;;;;10.22;nan;100698.22;5013495;28;19925;-33
2022/11/17 06:56:09;;;;;;;;;;;;;;;10.27;nan;100697.50;5015539;28;20295;-33
2022/11/17 06:58:36;;;;;;;;;;;;;;;10.32;nan;100702.13;5017350;28;20305;-34
2022/11/17 07:01:08;;;;;;;;;;;;;;;10.31;nan;100701.31;5022872;28;20390;-34
2022/11/17 07:03:35;;;;;;;;;;;;;;;10.14;nan;100692.47;5021813;28;19990;-34
2022/11/17 07:06:00;;;;;;;;;;;;;;;10.16;nan;100693.03;5021253;28;20234;-33
2022/11/17 07:08:26;;;;;;;;;;;;;;;10.10;nan;100694.03;5023351;28;20406;-33
2022/11/17 07:10:53;;;;;;;;;;;;;;;10.21;nan;100699.28;5019789;28;19937;-33
2022/11/17 07:13:23;;;;;;;;;;;;;;;10.12;nan;100689.22;5032901;22;19933;-32
2022/11/17 07:15:49;;;;;;;;;;;;;;;10.17;nan;100692.78;5008311;28;19973;-32
2022/11/17 07:18:15;;;;;;;;;;;;;;;10.05;nan;100684.03;5008001;28;19929;-33
2022/11/17 07:20:40;;;;;;;;;;;;;;;10.07;nan;100686.50;5007450;28;20294;-33
2022/11/17 07:23:06;;;;;;;;;;;;;;;10.06;nan;100692.91;5008194;28;19925;-33
2022/11/17 07:25:31;;;;;;;;;;;;;;;10.08;nan;100682.75;5008335;28;19925;-32
2022/11/17 07:27:58;;;;;;;;;;;;;;;10.05;nan;100684.03;5001037;28;19921;-33
2022/11/17 07:30:23;;;;;;;;;;;;;;;10.11;nan;100688.41;5008503;28;20300;-32
2022/11/17 07:32:48;;;;;;;;;;;;;;;10.18;nan;100686.38;5004301;28;19921;-33
2022/11/17 07:35:14;;;;;;;;;;;;;;;10.24;nan;100689.97;5007549;28;19925;-33
2022/11/17 07:37:40;;;;;;;;;;;;;;;10.26;nan;100688.66;5008270;28;20334;-33
2022/11/17 07:40:05;;;;;;;;;;;;;;;10.25;nan;100688.91;5008357;28;19921;-33
2022/11/17 07:42:31;;;;;;;;;;;;;;;10.25;nan;100675.53;5000333;28;19917;-33
2022/11/17 07:44:56;;;;;;;;;;;;;;;10.25;nan;100683.56;5009149;28;20008;-33
2022/11/17 07:47:22;;;;;;;;;;;;;;;10.25;nan;100662.13;5008780;28;20004;-32
2022/11/17 07:49:47;;;;;;;;;;;;;;;10.23;nan;100673.09;5007878;28;19925;-33
2022/11/17 07:52:12;;;;;;;;;;;;;;;10.25;nan;100664.81;5001918;28;19930;-33
2022/11/17 07:54:38;;;;;;;;;;;;;;;10.22;nan;100663.41;5004526;28;19918;-33
2022/11/17 07:57:03;;;;;;;;;;;;;;;10.18;nan;100661.47;5007600;28;19937;-33
2022/11/17 07:59:28;;;;;;;;;;;;;;;10.18;nan;100672.16;5004283;28;20003;-33
2022/11/17 08:01:54;;;;;;;;;;;;;;;10.24;nan;100655.16;5006831;28;19921;-33
2022/11/17 08:04:19;;;;;;;;;;;;;;;10.23;nan;100667.75;5005326;28;19917;-32
2022/11/17 08:06:44;;;;;;;;;;;;;;;10.28;nan;100669.66;5011055;28;20012;-33
2022/11/17 08:09:13;;;;;;;;;;;;;;;10.28;nan;100657.09;5009467;28;19917;-33
2022/11/17 08:11:38;;;;;;;;;;;;;;;10.12;nan;100668.63;5010827;28;19921;-33
2022/11/17 08:14:03;;;;;;;;;;;;;;;10.08;nan;100672.03;5012214;28;19928;-33
2022/11/17 08:16:29;;;;;;;;;;;;;;;10.04;nan;100682.41;5008218;28;19972;-33
2022/11/17 08:18:57;;;;;;;;;;;;;;;10.05;nan;100683.22;5010586;28;20347;-33
2022/11/17 08:21:23;;;;;;;;;;;;;;;10.06;nan;100684.88;5009235;28;19917;-32
2022/11/17 08:23:50;;;;;;;;;;;;;;;10.10;nan;100677.97;5010274;28;19932;-33
2022/11/17 08:26:16;;;;;;;;;;;;;;;10.13;nan;100675.59;5010899;28;19960;-33
2022/11/17 08:28:41;;;;;;;;;;;;;;;10.11;nan;100677.72;5006349;28;19953;-33
2022/11/17 08:31:06;;;;;;;;;;;;;;;10.16;nan;100685.81;5008273;28;19933;-33
2022/11/17 08:33:32;;;;;;;;;;;;;;;10.12;nan;100679.34;5011114;28;19917;-33
2022/11/17 08:35:58;;;;;;;;;;;;;;;10.12;nan;100686.56;5009282;28;19931;-33
2022/11/17 08:38:27;;;;;;;;;;;;;;;10.13;nan;100680.13;5011552;28;20426;-34
2022/11/17 08:40:56;;;;;;;;;;;;;;;10.15;nan;100686.88;5009677;28;19917;-33
2022/11/17 08:43:21;;;;;;;;;;;;;;;10.14;nan;100671.84;5008798;28;19978;-33
2022/11/17 08:45:46;;;;;;;;;;;;;;;10.05;nan;100681.34;5009810;28;19959;-33
2022/11/17 08:48:12;;;;;;;;;;;;;;;10.04;nan;100684.28;5008441;28;19957;-33
2022/11/17 08:50:37;;;;;;;;;;;;;;;10.03;nan;100680.78;5010678;28;19926;-33
2022/11/17 08:53:02;;;;;;;;;;;;;;;10.09;nan;100674.47;5010135;28;19930;-34
2022/11/17 08:55:28;;;;;;;;;;;;;;;10.11;nan;100684.94;5007082;28;19929;-33
2022/11/17 08:57:53;;;;;;;;;;;;;;;10.07;nan;100678.47;5011176;28;19924;-33
2022/11/17 09:00:20;;;;;;;;;;;;;;;10.08;nan;100680.88;5007763;28;19949;-33
2022/11/17 09:02:45;;;;;;;;;;;;;;;10.04;nan;100698.47;5009604;28;19926;-33
2022/11/17 09:05:11;;;;;;;;;;;;;;;10.04;nan;100686.94;5007805;28;19925;-33
2022/11/17 09:07:36;;;;;;;;;;;;;;;10.05;nan;100693.94;5011078;28;19948;-33
2022/11/17 09:10:03;;;;;;;;;;;;;;;10.08;nan;100696.13;5009988;28;19921;-33
2022/11/17 09:12:28;;;;;;;;;;;;;;;10.09;nan;100684.38;5009874;28;19921;-33
2022/11/17 09:14:54;;;;;;;;;;;;;;;10.04;nan;100686.94;5008527;28;19924;-33
2022/11/17 09:17:19;;;;;;;;;;;;;;;10.10;nan;100696.69;5005438;28;20056;-33
2022/11/17 09:19:44;;;;;;;;;;;;;;;10.13;nan;100688.97;5010649;28;19924;-33
2022/11/17 09:22:09;;;;;;;;;;;;;;;10.14;nan;100709.34;5009049;28;19917;-33
2022/11/17 09:24:35;;;;;;;;;;;;;;;10.10;nan;100691.34;5006763;28;20138;-33
2022/11/17 09:27:01;;;;;;;;;;;;;;;10.03;nan;100690.69;5010586;28;19925;-33
2022/11/17 09:29:27;;;;;;;;;;;;;;;10.04;nan;100692.31;5007821;28;20012;-33
2022/11/17 09:31:52;;;;;;;;;;;;;;;10.07;nan;100686.50;5004325;28;20457;-33
2022/11/17 09:34:18;;;;;;;;;;;;;;;10.08;nan;100688.09;5010053;28;19924;-32
2022/11/17 09:36:43;;;;;;;;;;;;;;;10.09;nan;100679.81;5007129;28;19921;-32
2022/11/17 09:39:08;;;;;;;;;;;;;;;10.15;nan;100688.72;5009919;28;20016;-33
2022/11/17 09:41:36;;;;;;;;;;;;;;;10.10;nan;100677.97;5010446;28;19964;-33
2022/11/17 09:44:11;;;;;;;;;;;;;;;10.12;nan;100678.53;5008349;28;20433;-33
2022/11/17 09:46:42;;;;;;;;;;;;;;;10.08;nan;100680.06;5010023;28;20437;-33
2022/11/17 09:49:14;;;;;;;;;;;;;;;10.06;nan;100679.50;5006449;28;19967;-33
2022/11/17 09:51:41;;;;;;;;;;;;;;;9.99;nan;100683.16;5009791;28;19944;-33
2022/11/17 09:54:15;;;;;;;;;;;;;;;9.98;nan;100668.16;5011661;28;19928;-32
2022/11/17 09:56:41;;;;;;;;;;;;;;;10.00;nan;100689.31;5007762;28;19921;-33
2022/11/17 09:59:11;;;;;;;;;;;;;;;9.91;nan;100680.91;5010088;28;19925;-32
2022/11/17 10:01:37;;;;;;;;;;;;;;;9.98;nan;100670.03;5008188;28;19918;-33
2022/11/17 10:04:07;;;;;;;;;;;;;;;9.96;nan;100670.25;5009163;28;19920;-33
2022/11/17 10:06:33;;;;;;;;;;;;;;;10.00;nan;100675.94;5010098;28;20366;-33
2022/11/17 10:09:10;;;;;;;;;;;;;;;10.04;nan;100665.53;5005419;28;19933;-33
2022/11/17 10:11:40;;;;;;;;;;;;;;;10.15;nan;100676.16;5006625;28;19929;-33
2022/11/17 10:14:09;;;;;;;;;;;;;;;10.24;nan;100666.69;5004932;28;19917;-33
2022/11/17 10:16:36;;;;;;;;;;;;;;;10.19;nan;100671.91;5007439;28;20375;-33
2022/11/17 10:19:09;;;;;;;;;;;;;;;10.18;nan;100672.16;5005884;28;20283;-33
2022/11/17 10:21:36;;;;;;;;;;;;;;;10.15;nan;100667.31;5009151;28;20166;-32
2022/11/17 10:24:01;;;;;;;;;;;;;;;10.06;nan;100666.94;5009040;28;19925;-33
2022/11/17 10:26:27;;;;;;;;;;;;;;;10.10;nan;100670.75;5005736;28;19963;-33
2022/11/17 10:29:06;;;;;;;;;;;;;;;10.11;nan;100669.69;5009172;28;20004;-32
2022/11/17 10:31:38;;;;;;;;;;;;;;;10.08;nan;100659.47;5005026;28;19925;-33
2022/11/17 10:34:03;;;;;;;;;;;;;;;10.13;nan;100661.41;5002564;28;20016;-33
2022/11/17 10:36:31;;;;;;;;;;;;;;;10.16;nan;100671.59;5008230;28;20310;-33
2022/11/17 10:38:58;;;;;;;;;;;;;;;10.16;nan;100667.06;5007142;28;19941;-34
2022/11/17 10:41:35;;;;;;;;;;;;;;;10.18;nan;100664.13;5006938;28;20008;-33
2022/11/17 10:44:04;;;;;;;;;;;;;;;10.21;nan;100666.34;5007967;28;19956;-33
2022/11/17 10:46:29;;;;;;;;;;;;;;;10.26;nan;100664.56;5005677;28;20071;-33
2022/11/17 10:48:57;;;;;;;;;;;;;;;10.27;nan;100654.66;5006072;28;20434;-33
2022/11/17 10:51:24;;;;;;;;;;;;;;;10.27;nan;100650.13;5006728;28;19925;-32
2022/11/17 10:54:08;;;;;;;;;;;;;;;10.31;nan;100642.41;5005577;28;19960;-33
2022/11/17 10:56:39;;;;;;;;;;;;;;;10.33;nan;100639.47;5008352;28;19975;-33
2022/11/17 10:59:12;;;;;;;;;;;;;;;10.31;nan;100637.03;5007562;28;19921;-33
2022/11/17 11:01:42;;;;;;;;;;;;;;;10.35;nan;100635.47;5007037;28;19956;-33
2022/11/17 11:04:28;;;;;;;;;;;;;;;10.40;nan;100646.25;5002341;28;19925;-33
2022/11/17 11:07:06;;;;;;;;;;;;;;;10.46;nan;100639.91;5010067;28;20463;-33
2022/11/17 11:09:32;;;;;;;;;;;;;;;10.47;nan;100632.69;5000354;28;20470;-33
2022/11/17 11:12:00;;;;;;;;;;;;;;;10.37;nan;100638.72;5008701;28;20023;-33
2022/11/17 11:14:32;;;;;;;;;;;;;;;10.39;nan;100628.56;5007463;28;19921;-33
2022/11/17 11:16:57;;;;;;;;;;;;;;;10.36;nan;100645.13;5008496;28;19963;-33
2022/11/17 11:19:23;;;;;;;;;;;;;;;10.36;nan;100626.38;5004442;28;19921;-33
2022/11/17 11:22:00;;;;;;;;;;;;;;;10.39;nan;100625.88;5008507;28;19921;-33
2022/11/17 11:24:28;;;;;;;;;;;;;;;10.45;nan;100630.25;5004188;28;19923;-33
2022/11/17 11:26:53;;;;;;;;;;;;;;;10.45;nan;100627.56;5007454;28;19948;-33
2022/11/17 11:29:19;;;;;;;;;;;;;;;10.45;nan;100624.91;5006304;28;19917;-33
2022/11/17 11:31:44;;;;;;;;;;;;;;;10.44;nan;100635.88;5002509;28;20222;-33
2022/11/17 11:34:28;;;;;;;;;;;;;;;10.46;nan;100625.72;5003969;28;20303;-33
2022/11/17 11:37:07;;;;;;;;;;;;;;;10.24;nan;100631.88;5004970;28;19968;-33
2022/11/17 11:39:44;;;;;;;;;;;;;;;10.31;nan;100626.31;5004881;28;19929;-33
2022/11/17 11:42:19;;;;;;;;;;;;;;;10.29;nan;100626.56;5005764;28;19924;-32
2022/11/17 11:44:59;;;;;;;;;;;;;;;10.38;nan;100629.63;5005406;28;20387;-33
2022/11/17 11:47:28;;;;;;;;;;;;;;;10.44;nan;100622.47;5008174;28;19923;-33
2022/11/17 11:49:56;;;;;;;;;;;;;;;10.52;nan;100622.81;5004072;28;20366;-33
2022/11/17 11:52:25;;;;;;;;;;;;;;;10.57;nan;100616.72;5005456;28;19976;-33
2022/11/17 11:55:20;;;;;;;;;;;;;;;10.47;nan;100611.25;5006035;28;20410;-33
2022/11/17 11:57:49;;;;;;;;;;;;;;;10.50;nan;100597.34;4984881;28;19926;-33
2022/11/17 12:00:15;;;;;;;;;;;;;;;10.48;nan;100611.00;5007285;28;19995;-33
2022/11/17 12:02:48;;;;;;;;;;;;;;;10.51;nan;100597.09;5006509;28;19972;-33
2022/11/17 12:05:24;;;;;;;;;;;;;;;10.54;nan;100596.59;5003311;28;20391;-32
2022/11/17 12:07:49;;;;;;;;;;;;;;;10.53;nan;100594.97;5003753;28;19932;-33
2022/11/17 12:10:15;;;;;;;;;;;;;;;10.52;nan;100598.72;5004345;28;20032;-33
2022/11/17 12:12:43;;;;;;;;;;;;;;;10.53;nan;100592.28;5003970;28;20418;-33
2022/11/17 12:15:17;;;;;;;;;;;;;;;10.53;nan;100588.81;5004743;28;19921;-33
2022/11/17 12:17:51;;;;;;;;;;;;;;;10.56;nan;100594.47;5005052;28;20383;-33
2022/11/17 12:20:32;;;;;;;;;;;;;;;10.61;nan;100582.22;5004064;28;20388;-34
2022/11/17 12:23:13;;;;;;;;;;;;;;;10.57;nan;100581.88;5005954;28;19922;-34
2022/11/17 12:25:43;;;;;;;;;;;;;;;10.60;nan;100573.38;4999809;28;19975;-33
2022/11/17 12:28:29;;;;;;;;;;;;;;;10.64;nan;100570.97;5005231;28;20383;-33
2022/11/17 12:30:56;;;;;;;;;;;;;;;10.59;nan;100574.41;5006118;28;20359;-33
2022/11/17 12:33:22;;;;;;;;;;;;;;;10.67;nan;100562.44;5005917;28;20299;-33
2022/11/17 12:36:10;;;;;;;;;;;;;;;10.64;nan;100574.47;4998769;28;19932;-33
2022/11/17 12:38:36;;;;;;;;;;;;;;;10.55;nan;100568.75;5001379;28;19929;-33
2022/11/17 12:41:01;;;;;;;;;;;;;;;10.54;nan;100566.31;5003845;28;19925;-33
2022/11/17 12:43:27;;;;;;;;;;;;;;;10.62;nan;100573.13;5004943;28;19932;-33
2022/11/17 12:45:52;;;;;;;;;;;;;;;10.59;nan;100575.22;5002003;28;19922;-33
2022/11/17 12:48:21;;;;;;;;;;;;;;;10.65;nan;100561.88;5001685;28;19921;-33
2022/11/17 12:50:59;;;;;;;;;;;;;;;10.57;nan;100568.47;5005905;28;20630;-33
2022/11/17 12:53:31;;;;;;;;;;;;;;;10.58;nan;100562.88;5009883;28;20453;-33
2022/11/17 12:55:59;;;;;;;;;;;;;;;10.59;nan;100561.84;5003878;28;19952;-33
2022/11/17 12:58:24;;;;;;;;;;;;;;;10.58;nan;100552.16;5008348;28;19917;-33
2022/11/17 13:00:57;;;;;;;;;;;;;;;10.58;nan;100554.84;5006961;28;19917;-33
2022/11/17 13:03:41;;;;;;;;;;;;;;;10.62;nan;100555.16;5008208;28;19929;-33
2022/11/17 13:06:08;;;;;;;;;;;;;;;10.64;nan;100565.63;5007760;28;19921;-33
2022/11/17 13:08:33;;;;;;;;;;;;;;;10.63;nan;100562.13;5002680;28;20314;-33
2022/11/17 13:11:10;;;;;;;;;;;;;;;10.70;nan;100556.56;5009432;28;19929;-33
2022/11/17 13:13:35;;;;;;;;;;;;;;;10.72;nan;100549.06;5008235;28;19972;-32
2022/11/17 13:16:01;;;;;;;;;;;;;;;10.65;nan;100545.81;5007118;28;20199;-33
2022/11/17 13:18:29;;;;;;;;;;;;;;;10.68;nan;100553.34;5009343;28;19925;-33
2022/11/17 13:20:55;;;;;;;;;;;;;;;10.64;nan;100552.22;5008604;28;20039;-33
2022/11/17 13:23:24;;;;;;;;;;;;;;;10.56;nan;100556.16;5007631;28;20048;-33
2022/11/17 13:26:06;;;;;;;;;;;;;;;10.59;nan;100550.28;5007695;28;19960;-33
2022/11/17 13:28:32;;;;;;;;;;;;;;;10.70;nan;100553.88;5009005;28;19917;-33
2022/11/17 13:30:57;;;;;;;;;;;;;;;10.76;nan;100555.53;5007114;28;19975;-33